Tiempo atmosférico en la estación meteorológica de Ávila, Ávila (1130 m.)

Fecha
DESCASC
Temp. máxima en grados centígrados (hora)
DESCASC
Temp. mínima en grados centígrados (hora)
DESCASC
Temp. media en grados centígrados
DESCASC
Racha de viento máxima en m/sg (hora)
DESCASC
Velocidad máxima media en intervalos de 10 minutos(hora)
DESCASC
Precipitaciones diarias en mm
DESCASC
Precipitaciones de 00:00 a 06:00 en mm
DESCASC
Precipitaciones de 06:00 a 12:00 en mm
DESCASC
Precipitaciones de 12:00 a 18:00 en mm
DESCASC
Precipitaciones de 18:00 a 24:00 en mm
DESCASC
17-08-2017 32.7 (17:40) 14.6 (08:00) 23.7 8.61 (15:30) 5 (15:00) 0 0 0 0 0
16-08-2017 29 (17:40) 14.9 (07:40) 21.9 7.78 (16:00) 4.72 (17:50) 0 0 0 0 0
15-08-2017 31.5 (17:40) 18.5 (00:00) 25 10.28 (19:30) 6.11 (19:40) 0 0 0 0 0
14-08-2017 31.9 (17:00) 18.4 (07:50) 25.1 11.94 (16:50) 6.11 (14:30) 0 0 0 0 0
13-08-2017 31.1 (16:50) 14.1 (00:00) 22.6 7.5 (14:50) 3.89 (14:00) 0 0 0 0 0
12-08-2017 28.9 (18:30) 9.9 (00:00) 19.4 7.22 (16:00) 4.44 (17:50) 0 0 0 0 0
11-08-2017 25 (18:40) 8 (00:00) 16.5 8.33 (00:40) 5.28 (00:20) 0 0 0 0 0
10-08-2017 22.1 (18:50) 5.9 (00:00) 14 9.72 (00:10) 5.28 (00:10) 0 0 0 0 0
09-08-2017 21.5 (18:00) 10.6 (00:00) 16.1 12.22 (19:40) 6.67 (19:50) 0 0 0 0 0
08-08-2017 23.1 (18:00) 12.1 (00:00) 17.6 8.33 (14:00) 5.56 (05:00) 0 0 0 0 0
07-08-2017 32.9 (16:00) 15.3 (00:00) 24.1 13.33 (17:50) 7.22 (18:40) 0 0 0 0 0
06-08-2017 31.3 (17:30) 12.7 (00:00) 22 8.61 (16:50) 5.83 (20:00) 0 0 0 0 0
05-08-2017 33.2 (18:00) 17.4 (00:00) 25.3 11.11 (22:10) 5 (17:10) 0 0 0 0 0
04-08-2017 33 (18:30) 17.7 (00:00) 25.4 8.33 (17:20) 4.44 (16:20) 0 0 0 0 0
03-08-2017 32.3 (17:30) 14.7 (00:00) 23.5 8.89 (19:00) 5.56 (19:10) 0 0 0 0 0
02-08-2017 31.2 (18:50) 13.1 (00:00) 22.2 7.5 (14:50) 3.89 (20:40) 0 0 0 0 0
01-08-2017 29.2 (18:20) 13.2 (00:00) 21.2 8.06 (15:50) 4.72 (19:10) 0 0 0 0 0
31-07-2017 29.1 (16:40) 15.1 (00:00) 22.1 13.33 (18:00) 6.11 (20:30) 0 0 0 0 0
30-07-2017 32.9 (17:40) 17.4 (00:00) 25.2 9.44 (15:30) 5 (18:10) 0 0 0 0 0
29-07-2017 32.7 (17:30) 16.2 (00:00) 24.5 13.61 (14:00) 5.83 (14:10) 0 0 0 0 0
28-07-2017 32.2 (17:40) 16.3 (00:00) 24.3 9.72 (19:50) 5 (18:30) 0 0 0 0 0
27-07-2017 32.8 (18:10) 15.7 (00:00) 24.2 9.72 (19:50) 6.11 (19:20) 0 0 0 0 0
26-07-2017 29.2 (18:30) 12.2 (00:00) 20.7 9.44 (18:10) 4.72 (19:10) 0 0 0 0 0
25-07-2017 25.8 (17:20) 11.6 (00:00) 18.7 8.61 (14:30) 5 (21:00) 0 0 0 0 0
24-07-2017 27.1 (18:20) 14.9 (00:00) 21 9.72 (18:00) 5.83 (19:10) 0 0 0 0 0
23-07-2017 28.4 (17:40) 13.2 (00:00) 20.8 10.28 (17:50) 6.11 (14:20) 0 0 0 0 0
22-07-2017 27.6 (17:40) 12.2 (00:00) 19.9 8.33 (19:50) 4.72 (19:10) 0 0 0 0 0

Gráficas

Temp. máximas Temp. mínimas Temp. medias Precipitaciones Rachas de viento máximas Velocidades máximas media en intervalos de 10 minutos

Datos horarios

Fecha y hora oficial Temperatura (ºC) Velocidad del viento (km/h) Dirección del viento Racha (km/h) Dirección de racha Precipitación (mm) Presión (hPa) Tendencia (hPa) Humedad (%)
2017-08-20 23:00:00 24.9 10 Nordeste 19 Nordeste 0 894.7 1.3 22
2017-08-20 22:00:00 26.6 12 Nordeste 19 Nordeste 0 894.3 0.6 21
2017-08-20 21:00:00 29.3 9 Norte 22 Norte 0 893.7 -0.4 18
2017-08-20 20:00:00 30.9 13 Norte 26 Norte 0 893.4 -0.9 18
2017-08-20 19:00:00 31.6 10 Nordeste 23 Noroeste 0 893.7 -1.1 18
2017-08-20 18:00:00 32.2 14 Noroeste 25 Noroeste 0 894.1 -1 18
2017-08-20 17:00:00 31.8 15 Noroeste 26 Norte 0 894.3 -1.1 18
2017-08-20 16:00:00 30.9 14 Norte 36 Noroeste 0 894.8 -1 22
2017-08-20 15:00:00 30.8 12 Noroeste 22 Norte 0 895.1 -0.9 23
2017-08-20 14:00:00 29.1 10 Norte 24 Norte 0 895.4 -0.6 26
2017-08-20 13:00:00 27.2 13 Norte 27 Norte 0 895.8 -0.1 29
2017-08-20 12:00:00 25.4 10 Nordeste 20 Norte 0 896 0.3 33
2017-08-20 11:00:00 23.6 13 Norte 18 Noroeste 0 896 0.5 37
2017-08-20 10:00:00 20.2 2 Oeste 6 Sur 0 895.9 0.7 42
2017-08-20 09:00:00 16.7 5 Sur 8 Sur 0 895.7 0.8 53
2017-08-20 08:00:00 14.2 0 Calma 5 Este 0 895.5 0.5 65
2017-08-20 07:00:00 14.5 0 Calma 9 Sur 0 895.2 0.4 62
2017-08-20 06:00:00 15.2 3 Sur 9 Sur 0 894.9 -0.2 60
2017-08-20 05:00:00 16.3 3 Nordeste 10 Norte 0 895 -0.1 55
2017-08-20 04:00:00 17.4 3 Sudoeste 10 Sudoeste 0 894.8 -0.4 51
2017-08-20 03:00:00 18.1 4 Sur 8 Sur 0 895.1 0.1 50
2017-08-20 02:00:00 19.9 6 Sudoeste 12 Nordeste 0 895.1 0.4 45
2017-08-20 01:00:00 20.9 8 Nordeste 22 Nordeste 0 895.2 1.2 42
2017-08-20 00:00:00 22.3 10 Norte 22 Nordeste 0 895 1.7 38
2017-08-19 23:00:00 23.6 11 Norte 18 Norte 0 894.7 1.8 38
2017-08-19 22:00:00 25.5 9 Norte 19 Norte 0 894 1.2 34
2017-08-19 21:00:00 27.6 13 Norte 25 Norte 0 893.3 0.4 30
2017-08-19 20:00:00 28.9 14 Norte 28 Norte 0 892.9 -0.2 28
2017-08-19 19:00:00 30 15 Norte 31 Noroeste 0 892.8 -0.4 25
2017-08-19 18:00:00 30.1 12 Norte 27 Norte 0 892.9 -0.6 26
2017-08-19 17:00:00 29.9 14 Noroeste 30 Norte 0 893.1 -0.5 28
2017-08-19 16:00:00 29.6 14 Noroeste 28 Norte 0 893.2 -0.4 28
2017-08-19 15:00:00 28.2 11 Norte 26 Noroeste 0 893.5 -0.2 33
2017-08-19 14:00:00 26.3 16 Norte 27 Norte 0 893.6 0.1 38
2017-08-19 13:00:00 25 16 Norte 30 Norte 0 893.6 0.1 44
2017-08-19 12:00:00 24.8 18 Norte 27 Norte 0 893.7 0.3 43
2017-08-19 11:00:00 22 3 Oeste 12 Sur 0 893.5 0.1 51
2017-08-19 10:00:00 18.4 6 Sudoeste 10 Sudoeste 0 893.5 0.2 63
2017-08-19 09:00:00 16.1 7 Sur 10 Sudoeste 0 893.4 0.4 71
2017-08-19 08:00:00 14.6 5 Sudeste 10 Sudeste 0 893.4 0.6 78
2017-08-19 07:00:00 15 5 Norte 13 Nordeste 0 893.3 0.7 78
2017-08-19 06:00:00 15.8 8 Norte 14 Norte 0 893 0.2 73
2017-08-19 05:00:00 17.1 7 Norte 13 Norte 0 892.8 -0.3 62
2017-08-19 04:00:00 18.9 6 Noroeste 10 Noroeste 0 892.6 -0.5 50
2017-08-19 03:00:00 19.1 2 Este 6 Noroeste 0 892.8 -0.2 47
2017-08-19 02:00:00 20.4 3 Noroeste 10 Noroeste 0 893.1 0.2 40
2017-08-19 01:00:00 21.6 4 Oeste 13 Sudoeste 0 893.1 0.5 33
2017-08-19 00:00:00 22.5 4 Oeste 11 Nordeste 0 893 1 36
2017-08-18 23:00:00 24.6 6 Norte 14 Norte 0 892.9 1.1 28
2017-08-18 22:00:00 25.7 9 Norte 18 Norte 0 892.6 0.5 26
2017-08-18 21:00:00 28.1 11 Norte 26 Norte 0 892 0 22
2017-08-18 20:00:00 30.4 15 Noroeste 31 Noroeste 0 891.8 -0.4 17
2017-08-18 19:00:00 31 16 Noroeste 32 Noroeste 0 892.1 -0.7 18
2017-08-18 18:00:00 31 19 Norte 39 Noroeste 0 892 -1.4 18
2017-08-18 17:00:00 31.1 16 Noroeste 31 Noroeste 0 892.2 -1.3 20
2017-08-18 16:00:00 30.2 12 Norte 30 Norte 0 892.8 -0.6 24
2017-08-18 15:00:00 29.1 15 Norte 35 Norte 0 893.4 0.2 27
2017-08-18 14:00:00 27.7 20 Noroeste 37 Norte 0 893.5 -0.1 31
2017-08-18 13:00:00 28 20 Norte 32 Norte 0 893.4 -0.3 30
2017-08-18 12:00:00 26.8 9 Nordeste 24 Norte 0 893.2 -0.5 32
2017-08-18 11:00:00 25.7 3 Sudeste 8 Sur 0 893.6 -0.2 31
2017-08-18 10:00:00 22.4 4 Sur 13 Sur 0 893.7 0.5 40
2017-08-18 09:00:00 19.9 5 Sudeste 9 Sur 0 893.7 0.8 45
2017-08-18 08:00:00 16.6 3 Este 7 Sudeste 0 893.8 0.8 55
2017-08-18 07:00:00 17 3 Este 6 Sudoeste 0 893.2 -0.1 52
2017-08-18 06:00:00 17.4 3 Sudoeste 7 Sudoeste 0 892.9 -0.9 52
2017-08-18 05:00:00 17.8 3 Sur 7 Sudoeste 0 893 -1 50
2017-08-18 04:00:00 18.3 2 Sur 7 Sur 0 893.3 -0.5 48
2017-08-18 03:00:00 19.2 3 Sur 5 Sur 0 893.8 0 47
2017-08-18 02:00:00 20.6 2 Sudeste 8 Sudoeste 0 894 0.4 42
2017-08-18 01:00:00 21.9 4 Sudoeste 7 Sudoeste 0 893.8 0.5 39
2017-08-18 00:00:00 22.9 2 Sudoeste 8 Sur 0 893.8 0.7 36
2017-08-17 23:00:00 25.4 0 Calma 9 Norte 0 893.6 0.9 32
2017-08-17 22:00:00 27.1 7 Norte 20 Noroeste 0 893.3 0.6 28
2017-08-17 21:00:00 29.6 11 Norte 25 Noroeste 0 893.1 0.2 23
2017-08-17 20:00:00 31.3 13 Norte 26 Noroeste 0 892.7 -0.4 21
2017-08-17 19:00:00 31.9 13 Norte 27 Norte 0 892.7 -0.8 21
2017-08-17 18:00:00 32.5 13 Noroeste 27 Noroeste 0 892.9 -1 20
2017-08-17 17:00:00 32.3 12 Norte 26 Norte 0 893.1 -1.2 22
2017-08-17 16:00:00 31.6 12 Norte 31 Norte 0 893.5 -1.2 21
2017-08-17 15:00:00 31.2 18 Norte 30 Norte 0 893.9 -1 22
2017-08-17 14:00:00 30.7 5 Nordeste 14 Noroeste 0 894.3 -0.6 21
2017-08-17 13:00:00 30.2 7 Noroeste 13 Oeste 0 894.7 -0.4 22
2017-08-17 12:00:00 28.1 3 Sudeste 8 Oeste 0 894.9 -0.2 25
2017-08-17 11:00:00 24.7 3 Sudoeste 8 Sur 0 894.9 0.2 32
2017-08-17 10:00:00 21.1 4 Sur 8 Sur 0 895.1 0.7 36
2017-08-17 09:00:00 18.1 3 Sur 5 Sur 0 895.1 0.9 43
2017-08-17 08:00:00 14.7 0 Calma 4 Sur 0 894.7 0.3 54
2017-08-17 07:00:00 15.3 0 Calma 8 Sudoeste 0 894.4 -0.3 51
2017-08-17 06:00:00 15.6 3 Sur 8 Sur 0 894.2 -0.7 50
2017-08-17 05:00:00 15.9 2 Sur 8 Sur 0 894.4 -0.7 49
2017-08-17 04:00:00 17 4 Sur 11 Sur 0 894.7 -0.5 44
2017-08-17 03:00:00 17.4 5 Sur 11 Sur 0 894.9 -0.2 44
2017-08-17 02:00:00 18.1 3 Sur 8 Sur 0 895.1 0 44
2017-08-17 01:00:00 19.2 0 Calma 6 Sudoeste 0 895.2 0.2 41
2017-08-17 00:00:00 21.5 4 Sur 12 Norte 0 895.1 0.5 36
2017-08-16 23:00:00 23.2 7 Norte 15 Norte 0 895.1 0.9 29
2017-08-16 22:00:00 24.5 12 Norte 19 Norte 0 895 0.9 27
2017-08-16 21:00:00 26.7 14 Norte 24 Noroeste 0 894.6 0.4 24
2017-08-16 20:00:00 28.4 13 Norte 27 Norte 0 894.2 -0.1 23
2017-08-16 19:00:00 28.6 9 Norte 27 Noroeste 0 894.1 -0.4 24
2017-08-16 18:00:00 28.7 14 Norte 26 Norte 0 894.2 -0.4 25
2017-08-16 17:00:00 28.3 14 Norte 27 Norte 0 894.3 -0.6 26
2017-08-16 16:00:00 27.9 14 Norte 28 Noroeste 0 894.5 -0.7 28
2017-08-16 15:00:00 27.4 11 Norte 21 Norte 0 894.6 -0.5 26
2017-08-16 14:00:00 26.4 10 Norte 21 Norte 0 894.9 -0.4 30
2017-08-16 13:00:00 25 13 Noroeste 23 Noroeste 0 895.2 0 35
2017-08-16 12:00:00 23.9 5 Norte 10 Nordeste 0 895.1 -0.1 37
2017-08-16 11:00:00 21.2 5 Noroeste 11 Norte 0 895.3 0.5 46
2017-08-16 10:00:00 19.4 6 Oeste 10 Oeste 0 895.2 0.8 49
2017-08-16 09:00:00 17.8 3 Este 6 Norte 0 895.2 0.8 56
2017-08-16 08:00:00 15.2 0 Calma 7 Nordeste 0 894.8 0.6 61
2017-08-16 07:00:00 15.5 3 Este 6 Sur 0 894.4 0.2 52
2017-08-16 06:00:00 15.6 2 Sudeste 3 Sudeste 0 894.4 -0.1 53
2017-08-16 05:00:00 15.9 0 Calma 5 Sur 0 894.2 -0.4 47
2017-08-16 04:00:00 16.9 2 Sur 8 Sur 0 894.2 -0.4 41
2017-08-16 03:00:00 17.7 3 Noroeste 10 Oeste 0 894.5 -0.3 42
2017-08-16 02:00:00 17.7 4 Oeste 8 Oeste 0 894.6 0.2 39
2017-08-16 01:00:00 18.5 3 Sudoeste 4 Oeste 0 894.6 0.7 36
2017-08-16 00:00:00 20.1 3 Sur 13 Noroeste 0 894.8 1.7 32
2017-08-15 23:00:00 22.6 8 Noroeste 15 Norte 0 894.4 2.1 23
2017-08-15 22:00:00 23.6 11 Norte 22 Norte 0 893.9 2 26
2017-08-15 21:00:00 25.7 14 Norte 32 Noroeste 0 893.1 1.1 24
2017-08-15 20:00:00 28.6 17 Noroeste 37 Oeste 0 892.3 0.3 23
2017-08-15 19:00:00 30.5 17 Noroeste 30 Oeste 0 891.9 -0.3 17
2017-08-15 18:00:00 30.7 9 Sudoeste 28 Oeste 0 892 -0.5 18
2017-08-15 17:00:00 29.4 9 Nordeste 32 Norte 0 892 -0.5 23
2017-08-15 16:00:00 30.7 9 Oeste 25 Oeste 0 892.2 -0.1 21
2017-08-15 15:00:00 28.7 18 Noroeste 28 Noroeste 0 892.5 0.5 26
2017-08-15 14:00:00 28.3 12 Norte 26 Norte 0 892.5 0.1 30
2017-08-15 13:00:00 27.7 21 Norte 29 Norte 0 892.3 -0.2 33
2017-08-15 12:00:00 27.9 12 Sudeste 30 Nordeste 0 892 -0.2 34
2017-08-15 11:00:00 26.2 12 Sur 23 Sur 0 892.4 0.7 39
2017-08-15 10:00:00 23.8 10 Sur 17 Sur 0 892.5 1.3 48
2017-08-15 09:00:00 21.2 8 Sur 16 Sur 0 892.2 1.1 55
2017-08-15 08:00:00 20 10 Sudeste 21 Sudeste 0 891.7 0.6 59
2017-08-15 07:00:00 19.3 8 Sudeste 13 Sur 0 891.2 -0.1 56
2017-08-15 06:00:00 18.9 2 Sudoeste 10 Sur 0 891.1 -0.3 52
2017-08-15 05:00:00 20.3 6 Sudeste 10 Sudeste 0 891.1 -0.4 49
2017-08-15 04:00:00 21.1 7 Sur 14 Sudoeste 0 891.3 -0.3 41
2017-08-15 03:00:00 22.4 7 Sudoeste 14 Sudoeste 0 891.4 0 42
2017-08-15 02:00:00 22.3 6 Sudeste 13 Sudeste 0 891.5 0.1 40
2017-08-15 01:00:00 21.4 10 Sudeste 24 Sudeste 0 891.6 0.7 40
2017-08-15 00:00:00 22.4 0 Calma 9 Este 0 891.4 1.3 39
2017-08-14 23:00:00 23.7 8 Sudeste 17 Este 0 891.4 1.8 34
2017-08-14 22:00:00 24.7 9 Nordeste 13 Nordeste 0 890.9 1.3 34
2017-08-14 21:00:00 28.6 8 Sudoeste 25 Sudoeste 0 890.1 0.4 24
2017-08-14 20:00:00 30.3 12 Sur 28 Sur 0 889.6 -0.1 21
2017-08-14 19:00:00 30.8 16 Sur 31 Sur 0 889.6 -0.2 21
2017-08-14 18:00:00 31.1 16 Sur 39 Sur 0 889.7 -0.7 22
2017-08-14 17:00:00 31.9 13 Sur 43 Sur 0 889.7 -1 23
2017-08-14 16:00:00 31.1 18 Sudeste 38 Sudeste 0 889.8 -1.3 24
2017-08-14 15:00:00 30.2 18 Sudeste 39 Sudeste 0 890.4 -0.8 27
2017-08-14 14:00:00 29.3 17 Sudeste 33 Sudeste 0 890.7 -0.4 28
2017-08-14 13:00:00 27.9 16 Sudeste 27 Sudeste 0 891.1 0.1 34
2017-08-14 12:00:00 25.7 15 Sudeste 27 Sudeste 0 891.2 0.2 39
2017-08-14 11:00:00 23.5 17 Sur 27 Sur 0 891.1 0.1 44
2017-08-14 10:00:00 21.9 18 Sur 31 Sur 0 891 0.3 48
2017-08-14 09:00:00 20.5 16 Sudeste 32 Sudeste 0 891 0.5 51
2017-08-14 08:00:00 18.7 7 Sur 17 Sur 0 891 0.3 51
2017-08-14 07:00:00 19.1 8 Sudoeste 20 Sur 0 890.7 0 48
2017-08-14 06:00:00 20.1 12 Sur 21 Sudeste 0 890.5 -0.2 42
2017-08-14 05:00:00 20 7 Sur 17 Sudeste 0 890.7 -0.1 40
2017-08-14 04:00:00 20.6 11 Sudeste 22 Sudeste 0 890.7 -0.3 36
2017-08-14 03:00:00 20.4 8 Sudeste 14 Sudeste 0 890.7 -0.4 30
2017-08-14 02:00:00 19.1 5 Sur 10 Sur 0 890.8 -0.3 34
2017-08-14 01:00:00 21.1 5 Sur 15 Sudeste 0 891 0.4 32
2017-08-14 00:00:00 22.6 13 Sudeste 18 Sudeste 0 891.1 0.8 27
2017-08-13 23:00:00 23.7 8 Sudeste 12 Sudeste 0 891.1 0.9 26
2017-08-13 22:00:00 24.5 5 Sudeste 9 Sudeste 0 890.6 0.5 26
2017-08-13 21:00:00 27 5 Sudeste 14 Sur 0 890.3 -0.1 23
2017-08-13 20:00:00 29 8 Sur 24 Sur 0 890.2 -0.5 20
2017-08-13 19:00:00 30.2 9 Sudeste 22 Sur 0 890.1 -1 19
2017-08-13 18:00:00 29.9 10 Sudeste 21 Sur 0 890.4 -1.1 19
2017-08-13 17:00:00 30.6 6 Noroeste 25 Sudoeste 0 890.7 -1.1 19
2017-08-13 16:00:00 30.4 5 Oeste 21 Sur 0 891.1 -1.3 19
2017-08-13 15:00:00 29.3 8 Este 27 Sudeste 0 891.5 -1.1 18
2017-08-13 14:00:00 29 14 Sudeste 24 Sudeste 0 891.8 -1 19
2017-08-13 13:00:00 28.4 10 Sudeste 21 Sudeste 0 892.4 -0.4 21
2017-08-13 12:00:00 26.8 13 Sudeste 22 Sur 0 892.6 -0.1 23
2017-08-13 11:00:00 24.5 10 Sur 27 Sudeste 0 892.8 0.3 27
2017-08-13 10:00:00 21.7 9 Sur 19 Sur 0 892.8 0.6 29
2017-08-13 09:00:00 17.6 5 Sur 11 Sur 0 892.7 0.5 34
2017-08-13 08:00:00 15 6 Sur 9 Sur 0 892.5 -0.1 37
2017-08-13 07:00:00 14.4 6 Sur 8 Sur 0 892.2 -0.6 39
2017-08-13 06:00:00 14.6 5 Sur 12 Sur 0 892.2 -1 40
2017-08-13 05:00:00 14.6 6 Sudeste 13 Sudeste 0 892.6 -1 38
2017-08-13 04:00:00 14.6 2 Este 8 Sur 0 892.8 -1.1 38
2017-08-13 03:00:00 15.3 0 Calma 5 Sudeste 0 893.2 -1 38
2017-08-13 02:00:00 16.8 3 Sur 8 Sur 0 893.6 -0.5 34
2017-08-13 01:00:00 18 0 Calma 7 Sur 0 893.9 0.4 33
2017-08-13 00:00:00 18.9 2 Sudoeste 5 Este 0 894.2 0.8 32
2017-08-12 23:00:00 21.9 2 Este 12 Norte 0 894.1 0.8 24
2017-08-12 22:00:00 23.6 7 Norte 14 Norte 0 893.5 0.1 21
2017-08-12 21:00:00 26.3 9 Norte 17 Nordeste 0 893.4 -0.2 17
2017-08-12 20:00:00 27.9 11 Norte 23 Noroeste 0 893.3 -0.4 15
2017-08-12 19:00:00 28.5 12 Norte 23 Norte 0 893.4 -1 13
2017-08-12 18:00:00 28.6 12 Norte 26 Norte 0 893.6 -1.1 13
2017-08-12 17:00:00 28.6 11 Norte 24 Noroeste 0 893.7 -1.6 13
2017-08-12 16:00:00 28.1 13 Norte 26 Norte 0 894.4 -1 15
2017-08-12 15:00:00 27.9 11 Norte 22 Norte 0 894.7 -1.1 15
2017-08-12 14:00:00 27.3 8 Sudoeste 18 Sur 0 895.3 -0.4 16
2017-08-12 13:00:00 25.9 6 Sur 20 Sur 0 895.4 -0.3 17
2017-08-12 12:00:00 24.4 7 Sur 17 Sudeste 0 895.8 0.2 18
2017-08-12 11:00:00 22.8 8 Sudeste 18 Este 0 895.7 0.4 21
2017-08-12 10:00:00 19.3 9 Sudeste 15 Sudeste 0 895.7 0.6 26
2017-08-12 09:00:00 14.9 5 Sur 8 Sur 0 895.6 0.8 34
2017-08-12 08:00:00 11.1 5 Sur 10 Sudeste 0 895.3 0.2 46
2017-08-12 07:00:00 10.5 5 Sur 12 Sur 0 895.1 -0.2 46
2017-08-12 06:00:00 11.2 3 Sudeste 9 Sur 0 894.8 -0.5 44
2017-08-12 05:00:00 11.9 6 Sur 10 Sur 0 895.1 -0.7 39
2017-08-12 04:00:00 12.4 0 Calma 11 Sur 0 895.3 -0.4 39
2017-08-12 03:00:00 13 0 Calma 12 Sur 0 895.3 -0.3 37
2017-08-12 02:00:00 14.9 3 Sudoeste 14 Sudoeste 0 895.8 0.3 33
2017-08-12 01:00:00 15.6 2 Oeste 12 Nordeste 0 895.7 0.5 32
2017-08-12 00:00:00 18.1 9 Este 22 Nordeste 0 895.6 0.8 25
2017-08-11 23:00:00 19 6 Nordeste 12 Norte 0 895.5 0.8 22
2017-08-11 22:00:00 20.9 6 Norte 19 Norte 0 895.2 0.5 21
2017-08-11 21:00:00 23.1 11 Norte 25 Noroeste 0 894.8 -0.1 17
2017-08-11 20:00:00 24.4 10 Norte 25 Norte 0 894.7 -0.5 15
2017-08-11 19:00:00 24.6 15 Norte 27 Noroeste 0 894.7 -0.8 15
2017-08-11 18:00:00 24.6 15 Norte 28 Norte 0 894.9 -0.9 14
2017-08-11 17:00:00 24.4 14 Norte 27 Norte 0 895.2 -0.8 16
2017-08-11 16:00:00 23.8 16 Noroeste 28 Norte 0 895.5 -0.7 18
2017-08-11 15:00:00 22.9 11 Norte 26 Noroeste 0 895.8 -0.5 20
2017-08-11 14:00:00 21.7 17 Norte 26 Noroeste 0 896 -0.4 24
2017-08-11 13:00:00 20.2 11 Norte 26 Norte 0 896.2 -0.2 29
2017-08-11 12:00:00 19.6 8 Noroeste 21 Norte 0 896.3 -0.2 33
2017-08-11 11:00:00 17.8 6 Norte 13 Norte 0 896.4 0.4 36
2017-08-11 10:00:00 14.1 5 Sudoeste 8 Sudoeste 0 896.4 0.6 47
2017-08-11 09:00:00 11.1 5 Sudoeste 9 Sudoeste 0 896.5 0.5 57
2017-08-11 08:00:00 8.3 2 Sur 5 Sur 0 896 -0.2 68
2017-08-11 07:00:00 8.4 4 Sur 7 Sur 0 895.8 -0.5 66
2017-08-11 06:00:00 9.2 0 Calma 6 Oeste 0 896 -0.7 63
2017-08-11 05:00:00 9.9 3 Oeste 12 Sudoeste 0 896.2 -0.8 60
2017-08-11 04:00:00 10.8 5 Sudoeste 9 Sudoeste 0 896.3 -0.6 57
2017-08-11 03:00:00 12.1 5 Sudoeste 12 Sudoeste 0 896.7 -0.2 53
2017-08-11 02:00:00 13.3 4 Noroeste 24 Este 0 897 0 51
2017-08-11 01:00:00 14.4 17 Nordeste 30 Nordeste 0 896.9 0.5 47
2017-08-11 00:00:00 15.1 14 Nordeste 24 Nordeste 0 896.9 1 43
2017-08-10 23:00:00 16.5 12 Nordeste 22 Nordeste 0 897 1.2 39
2017-08-10 22:00:00 18.1 9 Nordeste 19 Nordeste 0 896.4 0.5 33
2017-08-10 21:00:00 20.1 14 Norte 27 Nordeste 0 895.9 -0.1 30
2017-08-10 20:00:00 21.6 15 Norte 26 Nordeste 0 895.8 -0.5 27
2017-08-10 19:00:00 21.9 11 Norte 27 Noroeste 0 895.9 -0.7 25
2017-08-10 18:00:00 21.6 11 Norte 28 Noroeste 0 896 -1 26
2017-08-10 17:00:00 21.1 15 Norte 30 Norte 0 896.3 -0.8 30
2017-08-10 16:00:00 20.4 15 Norte 30 Norte 0 896.6 -0.7 33
2017-08-10 15:00:00 19.5 14 Norte 30 Norte 0 897 -0.2 34
2017-08-10 14:00:00 18.1 15 Norte 28 Noroeste 0 897.1 -0.2 37
2017-08-10 13:00:00 16.8 13 Nordeste 26 Nordeste 0 897.3 0 40
2017-08-10 12:00:00 14.8 13 Nordeste 23 Este 0 897.2 0.1 46
2017-08-10 11:00:00 13 11 Nordeste 26 Nordeste 0 897.3 0.9 52
2017-08-10 10:00:00 10.9 7 Nordeste 14 Nordeste 0 897.3 1.2 59
2017-08-10 09:00:00 8.4 6 Noroeste 12 Noroeste 0 897.1 1.3 70
2017-08-10 08:00:00 6.5 5 Noroeste 8 Oeste 0 896.4 0.4 80
2017-08-10 07:00:00 6 6 Noroeste 12 Noroeste 0 896.1 -0.1 81
2017-08-10 06:00:00 6.8 8 Norte 14 Norte 0 895.8 -0.6 78
2017-08-10 05:00:00 7.4 8 Noroeste 12 Noroeste 0 896 -0.3 74
2017-08-10 04:00:00 8.2 7 Noroeste 13 Noroeste 0 896.2 0.6 71
2017-08-10 03:00:00 9 7 Noroeste 18 Norte 0 896.4 1.4 67
2017-08-10 02:00:00 10 11 Norte 28 Norte 0 896.3 2.1 62
2017-08-10 01:00:00 11.1 17 Norte 35 Norte 0 895.6 2.4 56
2017-08-10 00:00:00 12.4 19 Norte 32 Norte 0 895 2.5 50
2017-08-09 23:00:00 14 20 Norte 35 Norte 0 894.2 2.5 41
2017-08-09 22:00:00 15.8 16 Nordeste 35 Nordeste 0 893.2 1.7 37
2017-08-09 21:00:00 18.1 16 Norte 33 Norte 0 892.5 0.9 33
2017-08-09 20:00:00 19.9 21 Norte 44 Norte 0 891.7 0.3 31
2017-08-09 19:00:00 20.4 21 Norte 39 Nordeste 0 891.5 -0.1 30
2017-08-09 18:00:00 21.1 20 Norte 37 Noroeste 0 891.6 0 30
2017-08-09 17:00:00 20.3 21 Norte 41 Noroeste 0 891.4 -0.3 35
2017-08-09 16:00:00 20.8 17 Norte 35 Norte 0 891.6 -0.1 36
2017-08-09 15:00:00 19.9 16 Noroeste 31 Noroeste 0 891.6 0.3 40
2017-08-09 14:00:00 18.4 15 Norte 37 Noroeste 0 891.7 0.4 46
2017-08-09 13:00:00 17 18 Norte 31 Noroeste 0 891.7 0.9 53
2017-08-09 12:00:00 15.7 18 Norte 28 Norte 0 891.3 0.8 57
2017-08-09 11:00:00 14.6 19 Norte 28 Norte 0 891.3 1 60
2017-08-09 10:00:00 13.2 10 Norte 19 Norte 0 890.8 0.4 63
2017-08-09 09:00:00 11.9 6 Norte 17 Norte 0 890.5 0.4 61
2017-08-09 08:00:00 10.9 4 Nordeste 20 Noroeste 0 890.3 0 59
2017-08-09 07:00:00 11.2 9 Norte 14 Norte 0 890.4 -0.2 56
2017-08-09 06:00:00 11.7 3 Sur 9 Sudoeste 0 890.1 -1 54
2017-08-09 05:00:00 13.2 5 Sudoeste 13 Sur 0 890.3 -0.7 47
2017-08-09 04:00:00 12.9 6 Sur 12 Sudoeste 0 890.6 -0.3 45
2017-08-09 03:00:00 13.2 5 Sudoeste 16 Sudoeste 0 891.1 0 40
2017-08-09 02:00:00 14 4 Sudoeste 13 Sudoeste 0 891 -0.4 37
2017-08-09 01:00:00 14.5 9 Sudeste 19 Sudeste 0 890.9 -0.1 36
2017-08-09 00:00:00 16.8 0 Calma 11 Norte 0 891.1 0.3 28
2017-08-08 23:00:00 17.9 7 Norte 13 Norte 0 891.4 0.9 26
2017-08-08 22:00:00 19.3 11 Norte 23 Noroeste 0 891 0.3 29
2017-08-08 21:00:00 21.1 13 Norte 24 Norte 0 890.8 -0.2 28
2017-08-08 20:00:00 22.4 14 Norte 26 Norte 0 890.5 -0.5 25
2017-08-08 19:00:00 22.8 12 Norte 25 Norte 0 890.7 -0.8 25
2017-08-08 18:00:00 22.8 13 Norte 24 Norte 0 891 -0.6 26
2017-08-08 17:00:00 22.5 13 Norte 28 Noroeste 0 891 -0.7 27
2017-08-08 16:00:00 21.2 12 Norte 26 Norte 0 891.5 -0.3 35
2017-08-08 15:00:00 20.4 14 Norte 25 Noroeste 0 891.6 -0.3 38
2017-08-08 14:00:00 18.9 17 Noroeste 30 Noroeste 0 891.7 0.2 47
2017-08-08 13:00:00 17 9 Norte 24 Norte 0 891.8 0.8 56
2017-08-08 12:00:00 15.2 12 Norte 20 Norte 0 891.9 1.3 67
2017-08-08 11:00:00 14.2 12 Norte 18 Noroeste 0 891.5 1.3 72
2017-08-08 10:00:00 12.8 7 Norte 17 Noroeste 0 891 1.3 82
2017-08-08 09:00:00 12.2 10 Noroeste 18 Noroeste 0 890.6 1.2 85
2017-08-08 08:00:00 12.4 11 Noroeste 21 Noroeste 0 890.2 0.8 78
2017-08-08 07:00:00 12.6 13 Noroeste 22 Noroeste 0 889.7 0 71
2017-08-08 06:00:00 12.4 13 Noroeste 23 Noroeste 0 889.4 -0.4 70
2017-08-08 05:00:00 13.6 20 Noroeste 29 Noroeste 0 889.4 -0.7 64
2017-08-08 04:00:00 14.7 10 Noroeste 24 Noroeste 0 889.7 -0.4 61
2017-08-08 03:00:00 15.6 17 Noroeste 25 Noroeste 0 889.8 0.1 58
2017-08-08 02:00:00 16.7 18 Noroeste 27 Oeste 0 890.1 0.8 52
2017-08-08 01:00:00 18 14 Noroeste 26 Noroeste 0 890.1 1.8 41
2017-08-08 00:00:00 19.8 12 Noroeste 32 Noroeste 0 889.7 2.1 26
2017-08-07 23:00:00 21.7 17 Noroeste 35 Noroeste 0 889.3 1.8 22
2017-08-07 22:00:00 23.8 16 Noroeste 27 Noroeste 0 888.3 0.8 17
2017-08-07 21:00:00 26.5 13 Oeste 29 Oeste 0 887.6 0 13
2017-08-07 20:00:00 28.1 17 Oeste 42 Oeste 0 887.5 -0.3 11
2017-08-07 19:00:00 30.3 26 Oeste 47 Oeste 0 887.5 -0.4 7
2017-08-07 18:00:00 32.3 22 Oeste 48 Sudoeste 0 887.6 -0.6 7
2017-08-07 17:00:00 32.3 23 Oeste 45 Oeste 0 887.8 -0.5 8
2017-08-07 16:00:00 32.9 17 Oeste 39 Oeste 0 887.9 -0.9 7
2017-08-07 15:00:00 31.1 21 Oeste 35 Oeste 0 888.2 -1.1 8
2017-08-07 14:00:00 32.3 18 Oeste 40 Oeste 0 888.3 -0.9 6
2017-08-07 13:00:00 30.7 19 Oeste 36 Oeste 0 888.8 -0.4 6
2017-08-07 12:00:00 28.6 9 Sudoeste 19 Sudoeste 0 889.3 0 13
2017-08-07 11:00:00 26.8 5 Oeste 14 Sur 0 889.2 0.1 22
2017-08-07 10:00:00 24.1 8 Sudeste 18 Sudeste 0 889.2 0.3 31
2017-08-07 09:00:00 20.5 8 Sur 15 Sur 0 889.3 0 48
2017-08-07 08:00:00 17.3 7 Sudeste 13 Sudeste 0 889.1 -0.6 57
2017-08-07 07:00:00 15.6 5 Sur 9 Sur 0 888.9 -1.1 65
2017-08-07 06:00:00 15.9 3 Sudeste 9 Sur 0 889.3 -1 67
2017-08-07 05:00:00 17 5 Sur 8 Sur 0 889.7 -1 61
2017-08-07 04:00:00 17.6 5 Sur 9 Sur 0 890 -0.9 59
2017-08-07 03:00:00 18.6 3 Sudeste 8 Sur 0 890.3 -0.6 57
2017-08-07 02:00:00 19.9 0 Calma 8 Norte 0 890.7 -0.1 55
2017-08-07 01:00:00 21.5 5 Norte 9 Norte 0 890.9 0.5 48
2017-08-07 00:00:00 23.1 4 Noroeste 13 Nordeste 0 890.9 1 43
2017-08-06 23:00:00 24.5 9 Nordeste 14 Nordeste 0 890.8 1.2 39
2017-08-06 22:00:00 25.9 9 Norte 24 Noroeste 0 890.4 0.8 36
2017-08-06 21:00:00 27.7 15 Norte 30 Noroeste 0 889.9 0.3 33
2017-08-06 20:00:00 29.6 21 Noroeste 29 Noroeste 0 889.6 -0.3 31
2017-08-06 19:00:00 30.8 17 Noroeste 28 Norte 0 889.6 -0.7 30
2017-08-06 18:00:00 30.8 10 Nordeste 25 Norte 0 889.6 -1.2 30
2017-08-06 17:00:00 30.5 18 Norte 31 Noroeste 0 889.9 -1.5 32
2017-08-06 16:00:00 29.5 16 Noroeste 25 Noroeste 0 890.3 -1.5 35
2017-08-06 15:00:00 27.9 17 Norte 27 Noroeste 0 890.8 -1.4 39
2017-08-06 14:00:00 25.6 14 Norte 24 Norte 0 891.4 -0.4 45
2017-08-06 13:00:00 23 12 Norte 24 Norte 0 891.8 0 50
2017-08-06 12:00:00 20.7 11 Norte 21 Norte 0 892.2 0.4 57
2017-08-06 11:00:00 18.5 12 Norte 19 Norte 0 891.8 0.1 63
2017-08-06 10:00:00 17.3 5 Nordeste 9 Nordeste 0 891.8 0.3 69
2017-08-06 09:00:00 15.5 2 Sudeste 8 Sur 0 891.8 0.3 73
2017-08-06 08:00:00 13.1 4 Noroeste 7 Noroeste 0 891.7 0 85
2017-08-06 07:00:00 12.8 3 Sur 6 Sur 0 891.5 -0.3 85
2017-08-06 06:00:00 13.1 5 Norte 8 Norte 0 891.5 -0.6 86
2017-08-06 05:00:00 13.6 5 Norte 13 Norte 0 891.7 -0.2 82
2017-08-06 04:00:00 14.4 8 Norte 17 Norte 0 891.8 0.3 78
2017-08-06 03:00:00 15.7 10 Norte 18 Norte 0 892.1 1 73
2017-08-06 02:00:00 17.7 12 Norte 26 Norte 0 891.9 0.8 64
2017-08-06 01:00:00 20.8 16 Norte 30 Norte 0 891.5 1.2 51
2017-08-06 00:00:00 22.7 5 Norte 20 Nordeste 0 891.1 1.2 47
2017-08-05 23:00:00 24.6 10 Norte 40 Noroeste 0 891.1 1.3 43
2017-08-05 22:00:00 28.1 12 Noroeste 22 Noroeste 0 890.3 0.5 25
2017-08-05 21:00:00 30.5 14 Noroeste 25 Noroeste 0 889.9 -0.2 25
2017-08-05 20:00:00 30.7 10 Norte 23 Norte 0 889.8 -0.4 26
2017-08-05 19:00:00 31.1 8 Norte 27 Noroeste 0 889.8 -0.9 27
2017-08-05 18:00:00 33.2 15 Noroeste 33 Noroeste 0 890.1 -0.9 23
2017-08-05 17:00:00 32.2 13 Noroeste 30 Noroeste 0 890.2 -1.3 26
2017-08-05 16:00:00 31.7 12 Noroeste 29 Noroeste 0 890.7 -1.2 29
2017-08-05 15:00:00 32.1 13 Noroeste 23 Norte 0 891 -1.2 29
2017-08-05 14:00:00 30.8 14 Noroeste 24 Noroeste 0 891.5 -0.8 32
2017-08-05 13:00:00 29.4 13 Norte 21 Norte 0 891.9 -0.5 34
2017-08-05 12:00:00 27.6 11 Norte 19 Norte 0 892.2 -0.1 40
2017-08-05 11:00:00 25.7 9 Noroeste 14 Noroeste 0 892.3 0.1 45
2017-08-05 10:00:00 22.7 2 Este 10 Sur 0 892.4 0.2 39
2017-08-05 09:00:00 19.5 5 Sur 9 Sur 0 892.3 0 48
2017-08-05 08:00:00 17.9 3 Sur 10 Sudeste 0 892.2 -0.3 58
2017-08-05 07:00:00 17.5 2 Sudeste 6 Sudeste 0 892.2 -0.6 56
2017-08-05 06:00:00 18.4 2 Sudeste 5 Sur 0 892.3 -0.7 51
2017-08-05 05:00:00 19 0 Calma 5 Nordeste 0 892.5 -0.7 48
2017-08-05 04:00:00 19.7 3 Nordeste 6 Nordeste 0 892.8 -0.4 46
2017-08-05 03:00:00 20.9 2 Sudeste 8 Oeste 0 893 -0.2 43
2017-08-05 02:00:00 22.9 3 Oeste 10 Noroeste 0 893.2 0.3 40
2017-08-05 01:00:00 25.3 5 Noroeste 13 Oeste 0 893.2 1.1 32
2017-08-05 00:00:00 26.4 8 Noroeste 18 Noroeste 0 893.2 1.4 32
2017-08-04 23:00:00 28.2 12 Noroeste 21 Noroeste 0 892.9 1.2 30
2017-08-04 22:00:00 29.1 6 Norte 12 Noroeste 0 892.1 0.3 31
2017-08-04 21:00:00 30.8 8 Norte 21 Noroeste 0 891.8 -0.2 27
2017-08-04 20:00:00 32.7 12 Noroeste 25 Noroeste 0 891.7 -0.7 26
2017-08-04 19:00:00 31.8 11 Norte 24 Noroeste 0 891.8 -0.8 28
2017-08-04 18:00:00 32.5 12 Norte 30 Norte 0 892 -1.2 27
2017-08-04 17:00:00 32.4 13 Norte 28 Norte 0 892.4 -1.3 27
2017-08-04 16:00:00 32.1 14 Norte 24 Norte 0 892.6 -1.4 29
2017-08-04 15:00:00 31.6 12 Norte 26 Norte 0 893.2 -1.1 30
2017-08-04 14:00:00 30.1 10 Norte 23 Norte 0 893.7 -0.7 35
2017-08-04 13:00:00 28.6 6 Nordeste 17 Norte 0 894 -0.3 38
2017-08-04 12:00:00 27.1 4 Noroeste 14 Norte 0 894.3 0.1 42
2017-08-04 11:00:00 25.1 5 Oeste 15 Noroeste 0 894.4 0.4 49
2017-08-04 10:00:00 22.6 4 Sudoeste 8 Sur 0 894.3 0.4 55
2017-08-04 09:00:00 20.1 6 Sudoeste 10 Sur 0 894.2 0.3 63
2017-08-04 08:00:00 18 2 Sur 8 Sur 0 894 0.1 70
2017-08-04 07:00:00 18.2 2 Norte 6 Norte 0 893.9 0 69
2017-08-04 06:00:00 19.6 7 Noroeste 13 Noroeste 0 893.9 -0.2 67
2017-08-04 05:00:00 20.1 4 Noroeste 12 Noroeste 0 893.9 -0.4 63
2017-08-04 04:00:00 20.9 7 Noroeste 14 Noroeste 0 893.9 -0.5 58
2017-08-04 03:00:00 21.8 6 Noroeste 19 Noroeste 0 894.1 -0.1 53
2017-08-04 02:00:00 22.7 10 Noroeste 19 Noroeste 0 894.3 0.1 49
2017-08-04 01:00:00 23.7 5 Oeste 13 Oeste 0 894.4 0.8 45
2017-08-04 00:00:00 24.7 7 Oeste 19 Oeste 0 894.2 1.1 42
2017-08-03 23:00:00 25.3 3 Nordeste 17 Noroeste 0 894.2 1.6 40
2017-08-03 22:00:00 26.9 9 Norte 30 Noroeste 0 893.6 1 35
2017-08-03 21:00:00 28.6 19 Noroeste 31 Noroeste 0 893.1 0.4 31
2017-08-03 20:00:00 30.5 19 Noroeste 32 Noroeste 0 892.6 -0.4 29
2017-08-03 19:00:00 31.6 19 Noroeste 32 Norte 0 892.6 -0.6 20
2017-08-03 18:00:00 31.7 16 Norte 30 Norte 0 892.7 -0.9 20
2017-08-03 17:00:00 31.8 7 Noroeste 22 Norte 0 893 -1 18
2017-08-03 16:00:00 31.4 6 Este 23 Noroeste 0 893.2 -1.1 19
2017-08-03 15:00:00 30.6 12 Noroeste 21 Noroeste 0 893.6 -0.8 18
2017-08-03 14:00:00 29.9 8 Nordeste 15 Este 0 894 -0.6 19
2017-08-03 13:00:00 29 5 Sur 13 Norte 0 894.3 -0.4 19
2017-08-03 12:00:00 26.8 6 Norte 11 Norte 0 894.4 -0.3 23
2017-08-03 11:00:00 23.8 4 Sudoeste 9 Sur 0 894.6 0 26
2017-08-03 10:00:00 20.9 4 Sudoeste 6 Sudoeste 0 894.7 0.4 33
2017-08-03 09:00:00 19.1 2 Noroeste 6 Sudeste 0 894.7 0.6 35
2017-08-03 08:00:00 15.4 0 Calma 10 Sudeste 0 894.6 0.4 42
2017-08-03 07:00:00 14.9 4 Sudeste 6 Sudeste 0 894.3 0 41
2017-08-03 06:00:00 15.3 3 Sudeste 8 Sudeste 0 894.1 -0.3 43
2017-08-03 05:00:00 16 3 Sudeste 8 Sudeste 0 894.2 -0.2 40
2017-08-03 04:00:00 16.5 3 Oeste 6 Noroeste 0 894.3 -0.2 39
2017-08-03 03:00:00 17.1 0 Calma 5 Noroeste 0 894.4 -0.1 43
2017-08-03 02:00:00 18.3 0 Calma 10 Sur 0 894.4 0.1 38
2017-08-03 01:00:00 21 7 Sudoeste 10 Oeste 0 894.5 1.2 26
2017-08-03 00:00:00 22.8 5 Oeste 13 Oeste 0 894.5 2 22
2017-08-02 23:00:00 24.9 3 Noroeste 14 Noroeste 0 894.3 2.4 18
2017-08-02 22:00:00 26.3 5 Noroeste 25 Noroeste 0 893.3 1.5 20
2017-08-02 21:00:00 28.8 13 Norte 24 Noroeste 0 892.5 0.7 18
2017-08-02 20:00:00 30.7 12 Noroeste 22 Noroeste 0 891.9 0 17
2017-08-02 19:00:00 31 4 Sur 15 Noroeste 0 891.8 -0.5 18
2017-08-02 18:00:00 30.4 8 Norte 15 Norte 0 891.8 -0.8 19
2017-08-02 17:00:00 30.5 5 Sudeste 23 Noroeste 0 891.9 -1 19
2017-08-02 16:00:00 30.4 6 Sudoeste 24 Sur 0 892.3 -0.9 20
2017-08-02 15:00:00 29.5 10 Sudoeste 27 Sur 0 892.6 -0.7 19
2017-08-02 14:00:00 28.8 9 Sudeste 22 Sudeste 0 892.9 -0.5 20
2017-08-02 13:00:00 27.9 10 Sur 21 Sur 0 893.2 -0.1 24
2017-08-02 12:00:00 26.4 5 Sur 14 Sur 0 893.3 0.2 26
2017-08-02 11:00:00 22.6 4 Nordeste 8 Sudoeste 0 893.4 0.5 31
2017-08-02 10:00:00 18.7 5 Sur 11 Sur 0 893.3 0.4 39
2017-08-02 09:00:00 15.7 5 Sudoeste 10 Sudoeste 0 893.1 0.2 42
2017-08-02 08:00:00 13.7 5 Sur 8 Sur 0 892.9 -0.2 48
2017-08-02 07:00:00 13.6 3 Sur 7 Sudoeste 0 892.9 -0.3 50
2017-08-02 06:00:00 14.1 4 Sur 6 Sur 0 892.9 -0.5 50
2017-08-02 05:00:00 14.8 2 Sudoeste 6 Sudoeste 0 893.1 -0.4 50
2017-08-02 04:00:00 15.3 0 Calma 6 Sur 0 893.2 0 48
2017-08-02 03:00:00 16.3 5 Sur 8 Sur 0 893.4 0.5 46
2017-08-02 02:00:00 17.7 3 Oeste 7 Noroeste 0 893.5 1.1 41
2017-08-02 01:00:00 20 4 Noroeste 13 Noroeste 0 893.2 1.7 31
2017-08-02 00:00:00 21 6 Noroeste 13 Noroeste 0 892.9 2.3 30
2017-08-01 23:00:00 22.5 7 Norte 12 Noroeste 0 892.4 2.5 28
2017-08-01 22:00:00 23.8 7 Norte 21 Noroeste 0 891.5 1.9 29
2017-08-01 21:00:00 25.4 15 Noroeste 26 Noroeste 0 890.6 1.1 27
2017-08-01 20:00:00 27.1 13 Noroeste 24 Norte 0 889.9 0.7 28
2017-08-01 19:00:00 27.9 12 Norte 27 Noroeste 0 889.6 0.5 26
2017-08-01 18:00:00 29 7 Noroeste 18 Noroeste 0 889.5 0.2 21
2017-08-01 17:00:00 28.6 9 Sudeste 23 Sudeste 0 889.2 0.2 18
2017-08-01 16:00:00 27.3 13 Norte 29 Noroeste 0 889.1 -0.3 23
2017-08-01 15:00:00 26.8 6 Norte 21 Norte 0 889.3 -0.3 26
2017-08-01 14:00:00 25.3 7 Nordeste 21 Norte 0 889 -0.2 29
2017-08-01 13:00:00 23.4 8 Norte 24 Norte 0 889.4 0.6 34
2017-08-01 12:00:00 21 5 Norte 14 Noroeste 0 889.6 1.2 40
2017-08-01 11:00:00 19 9 Noroeste 16 Norte 0 889.2 1.1 44
2017-08-01 10:00:00 17.5 5 Nordeste 9 Nordeste 0 888.8 1.2 48
2017-08-01 09:00:00 15.5 2 Sudeste 6 Sur 0 888.4 0.8 53
2017-08-01 08:00:00 13.5 4 Sur 8 Sur 0 888.1 0.8 54
2017-08-01 07:00:00 13.5 3 Sur 8 Sur 0 887.6 0.2 56
2017-08-01 06:00:00 14.6 4 Sur 9 Este 0 887.6 0.2 52
2017-08-01 05:00:00 15.6 5 Nordeste 9 Sudeste 0 887.3 -0.2 48
2017-08-01 04:00:00 16.7 4 Norte 10 Noroeste 0 887.4 0.3 44
2017-08-01 03:00:00 17.8 6 Noroeste 10 Noroeste 0 887.4 -0.1 40
2017-08-01 02:00:00 18.1 6 Nordeste 13 Norte 0 887.5 -0.5 40
2017-08-01 01:00:00 18.1 8 Este 12 Este 0 887.1 -0.6 38
2017-08-01 00:00:00 18.7 6 Norte 15 Noroeste 0 887.5 0.8 36
2017-07-31 23:00:00 19.4 9 Norte 23 Norte 0 888 2.3 35
2017-07-31 22:00:00 20.3 13 Noroeste 28 Noroeste 0 887.7 2.2 34
2017-07-31 21:00:00 21.8 19 Noroeste 36 Noroeste 0 886.7 1.3 32
2017-07-31 20:00:00 26.2 12 Sudoeste 32 Sudoeste 0 885.7 0.5 16
2017-07-31 19:00:00 27.1 12 Sudoeste 27 Oeste 0 885.5 0 14
2017-07-31 18:00:00 28.4 14 Sudoeste 48 Sur 0 885.4 -0.4 14
2017-07-31 17:00:00 28.3 15 Noroeste 31 Noroeste 0 885.2 -0.9 22
2017-07-31 16:00:00 28.9 14 Noroeste 28 Norte 0 885.5 -0.8 23
2017-07-31 15:00:00 28 13 Norte 28 Noroeste 0 885.8 -0.5 24
2017-07-31 14:00:00 26.8 11 Norte 25 Norte 0 886.1 -0.2 29
2017-07-31 13:00:00 24.6 13 Norte 27 Norte 0 886.3 0.2 36
2017-07-31 12:00:00 24.1 8 Nordeste 18 Norte 0 886.3 0.4 38
2017-07-31 11:00:00 20.5 10 Norte 23 Noroeste 0 886.3 0.5 48
2017-07-31 10:00:00 19.9 13 Norte 23 Norte 0 886.1 0.2 46
2017-07-31 09:00:00 17.7 4 Noroeste 8 Sudeste 0 885.9 0 47
2017-07-31 08:00:00 15.5 6 Sur 9 Sur 0 885.8 -0.5 52
2017-07-31 07:00:00 15.7 5 Sudeste 7 Sudeste 0 885.9 -0.8 50
2017-07-31 06:00:00 16.6 4 Este 8 Este 0 885.9 -1.4 48
2017-07-31 05:00:00 16.7 4 Nordeste 8 Nordeste 0 886.3 -1.3 49
2017-07-31 04:00:00 17.4 4 Noroeste 5 Noroeste 0 886.7 -1 45
2017-07-31 03:00:00 18.6 6 Noroeste 12 Noroeste 0 887.3 -0.5 38
2017-07-31 02:00:00 19.6 2 Noroeste 6 Noroeste 0 887.6 -0.6 39
2017-07-31 01:00:00 21.7 4 Noroeste 9 Norte 0 887.7 0.1 31
2017-07-31 00:00:00 23.2 5 Nordeste 10 Norte 0 887.8 0.5 30
2017-07-30 23:00:00 25.1 8 Norte 15 Norte 0 888.2 1.1 25
2017-07-30 22:00:00 27.4 6 Oeste 21 Sudoeste 0 887.6 0.4 22
2017-07-30 21:00:00 29.7 9 Oeste 27 Oeste 0 887.3 -0.1 19
2017-07-30 20:00:00 31.4 14 Sudoeste 28 Oeste 0 887.1 -0.7 18
2017-07-30 19:00:00 32.7 12 Oeste 32 Oeste 0 887.2 -1.1 16
2017-07-30 18:00:00 32.9 13 Oeste 33 Oeste 0 887.4 -1.4 16
2017-07-30 17:00:00 31.4 7 Este 22 Noroeste 0 887.8 -1.4 18
2017-07-30 16:00:00 31.3 10 Norte 34 Noroeste 0 888.3 -1.2 17
2017-07-30 15:00:00 29.9 10 Nordeste 24 Noroeste 0 888.8 -1 24
2017-07-30 14:00:00 28.9 13 Noroeste 21 Noroeste 0 889.2 -0.8 27
2017-07-30 13:00:00 28 12 Noroeste 20 Noroeste 0 889.5 -0.8 29
2017-07-30 12:00:00 26.4 4 Sur 9 Sur 0 889.8 -0.6 31
2017-07-30 11:00:00 23.8 4 Sudeste 11 Noroeste 0 890 -0.6 38
2017-07-30 10:00:00 20.9 3 Sudoeste 8 Sur 0 890.3 -0.3 45
2017-07-30 09:00:00 19.1 2 Norte 7 Norte 0 890.4 -0.1 51
2017-07-30 08:00:00 17.4 4 Nordeste 11 Nordeste 0 890.6 0.1 58
2017-07-30 07:00:00 17.7 5 Nordeste 12 Norte 0 890.6 -0.4 57
2017-07-30 06:00:00 18.3 8 Nordeste 18 Norte 0 890.5 -0.9 54
2017-07-30 05:00:00 18.5 6 Este 12 Este 0 890.5 -1.5 52
2017-07-30 04:00:00 19.2 3 Este 15 Sudeste 0 891 -1.2 46
2017-07-30 03:00:00 19.6 2 Nordeste 6 Este 0 891.4 -0.8 44
2017-07-30 02:00:00 21.1 0 Calma 10 Oeste 0 892 0 43
2017-07-30 01:00:00 24.1 5 Oeste 27 Oeste 0 892.2 0.8 31
2017-07-30 00:00:00 25.1 9 Oeste 19 Oeste 0 892.2 1.1 27
2017-07-29 23:00:00 25.7 3 Norte 16 Norte 0 892 1 27
2017-07-29 22:00:00 27.6 9 Norte 20 Norte 0 891.4 0.4 23
2017-07-29 21:00:00 30 11 Noroeste 24 Noroeste 0 891.1 -0.2 20
2017-07-29 20:00:00 31.5 14 Noroeste 31 Oeste 0 891 -0.6 18
2017-07-29 19:00:00 32 15 Noroeste 36 Noroeste 0 891 -0.9 19
2017-07-29 18:00:00 31.9 15 Noroeste 29 Noroeste 0 891.3 -0.8 17
2017-07-29 17:00:00 32.1 15 Noroeste 30 Noroeste 0 891.6 -0.7 16
2017-07-29 16:00:00 31.5 12 Noroeste 31 Noroeste 0 891.9 -0.9 17
2017-07-29 15:00:00 30.9 17 Noroeste 36 Noroeste 0 892.1 -0.9 18
2017-07-29 14:00:00 29.1 17 Norte 49 Noroeste 0 892.3 -0.7 24
2017-07-29 13:00:00 27.7 7 Norte 19 Noroeste 0 892.8 -0.1 35
2017-07-29 12:00:00 25.8 10 Norte 19 Norte 0 893 0.4 37
2017-07-29 11:00:00 23.6 10 Noroeste 15 Noroeste 0 893 0.7 39
2017-07-29 10:00:00 20 5 Sur 12 Sur 0 892.9 0.9 40
2017-07-29 09:00:00 18.2 5 Sur 9 Sudoeste 0 892.6 0.6 43
2017-07-29 08:00:00 16.9 2 Oeste 5 Este 0 892.3 0.2 51
2017-07-29 07:00:00 16.5 5 Este 8 Este 0 892 -0.3 50
2017-07-29 06:00:00 16.8 2 Este 6 Sudeste 0 892 -0.6 48
2017-07-29 05:00:00 17 2 Sur 6 Sur 0 892.1 -0.5 46
2017-07-29 04:00:00 18.2 3 Oeste 6 Noroeste 0 892.3 -0.3 41
2017-07-29 03:00:00 20.2 4 Sudoeste 13 Oeste 0 892.6 -0.1 39
2017-07-29 02:00:00 20.5 4 Sudoeste 7 Sudoeste 0 892.6 0 38
2017-07-29 01:00:00 22.4 0 Calma 11 Noroeste 0 892.6 0.6 31
2017-07-29 00:00:00 24.9 9 Norte 15 Noroeste 0 892.7 1.3 27
2017-07-28 23:00:00 26.1 11 Noroeste 19 Noroeste 0 892.6 1.5 34
2017-07-28 22:00:00 27.7 12 Noroeste 25 Noroeste 0 892 1.1 32
2017-07-28 21:00:00 30 12 Noroeste 25 Norte 0 891.4 0.3 29
2017-07-28 20:00:00 31.5 13 Noroeste 35 Norte 0 891.1 -0.2 21
2017-07-28 19:00:00 32 15 Noroeste 32 Norte 0 890.9 -0.8 17
2017-07-28 18:00:00 32 12 Norte 31 Noroeste 0 891.1 -1 16
2017-07-28 17:00:00 31.4 12 Nordeste 23 Norte 0 891.3 -1.2 26
2017-07-28 16:00:00 31.2 9 Noroeste 24 Noroeste 0 891.7 -1.1 26
2017-07-28 15:00:00 30.1 4 Norte 21 Norte 0 892.1 -0.7 28
2017-07-28 14:00:00 29.2 10 Norte 20 Noroeste 0 892.5 -0.2 30
2017-07-28 13:00:00 27.5 5 Norte 15 Nordeste 0 892.8 0.1 35
2017-07-28 12:00:00 25.4 8 Norte 16 Norte 0 892.8 0.2 39
2017-07-28 11:00:00 23.7 9 Norte 18 Noroeste 0 892.7 0.2 51
2017-07-28 10:00:00 21.6 2 Noroeste 7 Sur 0 892.7 0.3 55
2017-07-28 09:00:00 19.8 5 Sur 6 Sur 0 892.6 0.4 54
2017-07-28 08:00:00 17.2 2 Oeste 4 Este 0 892.5 0.4 64
2017-07-28 07:00:00 16.6 4 Sudeste 6 Sur 0 892.4 0.2 62
2017-07-28 06:00:00 18.1 3 Oeste 9 Noroeste 0 892.2 0 61
2017-07-28 05:00:00 18.4 5 Noroeste 9 Noroeste 0 892.1 -0.1 52
2017-07-28 04:00:00 20.5 5 Noroeste 15 Oeste 0 892.2 0.4 43
2017-07-28 03:00:00 21.8 7 Oeste 14 Norte 0 892.2 0.6 35
2017-07-28 02:00:00 21.6 4 Sur 10 Sur 0 892.2 0.9 28
2017-07-28 01:00:00 21.8 2 Este 10 Sudoeste 0 891.8 1.1 31
2017-07-28 00:00:00 24.1 6 Oeste 13 Sudoeste 0 891.6 1.5 24
2017-07-27 23:00:00 25.6 5 Noroeste 13 Norte 0 891.3 1.7 19
2017-07-27 22:00:00 27.4 7 Norte 22 Norte 0 890.7 1.2 16
2017-07-27 21:00:00 29.9 17 Noroeste 31 Norte 0 890.1 0.5 14
2017-07-27 20:00:00 31.1 21 Noroeste 35 Norte 0 889.6 -0.3 17
2017-07-27 19:00:00 32 21 Noroeste 33 Noroeste 0 889.5 -0.8 19
2017-07-27 18:00:00 32.7 16 Noroeste 30 Noroeste 0 889.6 -1.1 19
2017-07-27 17:00:00 31.6 16 Noroeste 30 Noroeste 0 889.9 -1.1 21
2017-07-27 16:00:00 31.6 11 Nordeste 27 Nordeste 0 890.3 -1 21
2017-07-27 15:00:00 31.2 10 Noroeste 26 Norte 0 890.7 -0.8 21
2017-07-27 14:00:00 30.3 8 Noroeste 20 Noroeste 0 891 -0.3 23
2017-07-27 13:00:00 29.2 7 Norte 23 Noroeste 0 891.3 -0.3 25
2017-07-27 12:00:00 28 14 Norte 24 Norte 0 891.5 0 26
2017-07-27 11:00:00 26.7 3 Sur 7 Sudoeste 0 891.3 0 26
2017-07-27 10:00:00 23.5 3 Sudoeste 7 Sur 0 891.6 0.5 31
2017-07-27 09:00:00 20.8 0 Calma 5 Sudeste 0 891.5 0.6 37
2017-07-27 08:00:00 17.4 2 Sudeste 7 Sudeste 0 891.3 0.3 46
2017-07-27 07:00:00 16 3 Sur 6 Sudeste 0 891.1 -0.1 52
2017-07-27 06:00:00 16 3 Sudeste 10 Sur 0 890.9 -0.6 54
2017-07-27 05:00:00 16.6 4 Sur 7 Sur 0 891 -0.5 49
2017-07-27 04:00:00 17 2 Sudeste 10 Sudoeste 0 891.2 -0.5 49
2017-07-27 03:00:00 17.8 7 Sur 14 Sur 0 891.5 -0.1 44
2017-07-27 02:00:00 18.5 2 Sudeste 12 Sudoeste 0 891.5 0 46
2017-07-27 01:00:00 19.7 3 Sudoeste 6 Sudoeste 0 891.7 0.7 44
2017-07-27 00:00:00 21.9 2 Sudeste 10 Sur 0 891.6 0.8 36
2017-07-26 23:00:00 23.3 5 Este 11 Nordeste 0 891.5 0.9 37
2017-07-26 22:00:00 25.3 6 Nordeste 16 Norte 0 891 0.4 29
2017-07-26 21:00:00 27.3 13 Norte 19 Norte 0 890.8 0.1 24
2017-07-26 20:00:00 28.7 12 Noroeste 27 Nordeste 0 890.6 -0.4 23
2017-07-26 19:00:00 28.9 15 Norte 34 Norte 0 890.6 -0.7 25
2017-07-26 18:00:00 28.7 13 Norte 28 Norte 0 890.7 -0.8 25
2017-07-26 17:00:00 28.6 14 Norte 28 Norte 0 891 -0.9 26
2017-07-26 16:00:00 27.7 14 Norte 29 Norte 0 891.3 -0.8 28
2017-07-26 15:00:00 27 10 Norte 25 Norte 0 891.5 -0.6 31
2017-07-26 14:00:00 26 9 Norte 25 Norte 0 891.9 -0.2 31
2017-07-26 13:00:00 24.9 14 Noroeste 23 Noroeste 0 892.1 -0.3 35
2017-07-26 12:00:00 23.7 10 Noroeste 19 Norte 0 892.1 -0.1 36
2017-07-26 11:00:00 21.9 5 Oeste 10 Oeste 0 892.1 0.3 39
2017-07-26 10:00:00 19.1 3 Sudoeste 8 Sudoeste 0 892.4 0.8 46
2017-07-26 09:00:00 16.5 4 Sudoeste 10 Sudoeste 0 892.2 0.7 48
2017-07-26 08:00:00 13.3 5 Sur 11 Sudoeste 0 891.8 0.2 57
2017-07-26 07:00:00 12.7 5 Sur 11 Sudoeste 0 891.6 -0.1 59
2017-07-26 06:00:00 13 3 Sudoeste 8 Sudoeste 0 891.5 -0.2 58
2017-07-26 05:00:00 13.7 0 Calma 8 Sudoeste 0 891.6 -0.2 57
2017-07-26 04:00:00 14.8 4 Sur 8 Sur 0 891.7 -0.2 51
2017-07-26 03:00:00 16.1 3 Sudoeste 12 Sudoeste 0 891.7 -0.5 48
2017-07-26 02:00:00 17.3 7 Nordeste 27 Nordeste 0 891.8 -0.1 44
2017-07-26 01:00:00 17.9 14 Nordeste 25 Nordeste 0 891.9 0.6 43
2017-07-26 00:00:00 18.7 9 Nordeste 24 Nordeste 0 892.2 1.5 39
2017-07-25 23:00:00 20.2 8 Nordeste 19 Nordeste 0 891.9 1.2 33
2017-07-25 22:00:00 21.7 8 Norte 27 Noroeste 0 891.3 0.5 30
2017-07-25 21:00:00 24.2 18 Norte 31 Norte 0 890.7 -0.3 24
2017-07-25 20:00:00 25.4 18 Noroeste 31 Noroeste 0 890.7 -0.6 23
2017-07-25 19:00:00 25.6 15 Norte 28 Norte 0 890.8 -0.9 25
2017-07-25 18:00:00 25.6 13 Norte 28 Noroeste 0 891 -1.1 25
2017-07-25 17:00:00 25.2 14 Norte 31 Noroeste 0 891.3 -1.1 24
2017-07-25 16:00:00 24.8 15 Noroeste 27 Noroeste 0 891.7 -1.1 23
2017-07-25 15:00:00 23.3 13 Noroeste 31 Norte 0 892.1 -0.8 29
2017-07-25 14:00:00 22.2 13 Norte 25 Norte 0 892.4 -0.9 32
2017-07-25 13:00:00 20.7 16 Norte 30 Noroeste 0 892.8 -0.6 39
2017-07-25 12:00:00 19.2 14 Norte 24 Noroeste 0 892.9 -0.3 45
2017-07-25 11:00:00 16.7 13 Norte 26 Noroeste 0 893.3 0.3 60
2017-07-25 10:00:00 15.9 10 Norte 15 Noroeste 0 893.4 0.2 68
2017-07-25 09:00:00 14.3 3 Norte 7 Norte 0 893.2 0 75
2017-07-25 08:00:00 12.5 4 Sur 6 Sur 0 893 -0.4 80
2017-07-25 07:00:00 11.7 2 Sudeste 13 Norte 0 893.2 -0.5 83
2017-07-25 06:00:00 12.4 6 Norte 10 Nordeste 0 893.2 -0.8 81
2017-07-25 05:00:00 13.4 8 Norte 14 Noroeste 0 893.4 -0.7 75
2017-07-25 04:00:00 14.5 9 Norte 12 Norte 0 893.7 -0.3 69
2017-07-25 03:00:00 15.5 8 Noroeste 14 Norte 0 894 -0.1 64
2017-07-25 02:00:00 16.7 10 Norte 19 Norte 0 894.1 0.2 59
2017-07-25 01:00:00 18.1 11 Norte 19 Norte 0 894 0.5 54
2017-07-25 00:00:00 20 9 Nordeste 19 Norte 0 894.1 0.6 43
2017-07-24 23:00:00 21.8 5 Noroeste 17 Noroeste 0 893.9 0.6 32
2017-07-24 22:00:00 23.2 12 Noroeste 25 Norte 0 893.5 0.1 28
2017-07-24 21:00:00 25.2 18 Norte 30 Norte 0 893.5 0 25
2017-07-24 20:00:00 26.3 19 Noroeste 33 Norte 0 893.3 -0.5 22
2017-07-24 19:00:00 26.6 18 Noroeste 34 Noroeste 0 893.4 -0.9 24
2017-07-24 18:00:00 27 17 Norte 35 Noroeste 0 893.5 -1.2 25
2017-07-24 17:00:00 25.9 19 Norte 31 Norte 0 893.8 -1.2 33
2017-07-24 16:00:00 25.4 13 Noroeste 27 Noroeste 0 894.3 -0.9 35
2017-07-24 15:00:00 24.4 13 Noroeste 29 Noroeste 0 894.7 -0.5 36
2017-07-24 14:00:00 22.9 13 Norte 24 Norte 0 895 0 46
2017-07-24 13:00:00 21.6 11 Norte 28 Norte 0 895.2 0.2 51
2017-07-24 12:00:00 20.5 15 Noroeste 25 Nordeste 0 895.2 0.4 55
2017-07-24 11:00:00 18.9 14 Norte 24 Noroeste 0 895 0.3 63
2017-07-24 10:00:00 18.1 13 Norte 24 Norte 0 895 0.6 65
2017-07-24 09:00:00 17.2 12 Norte 19 Noroeste 0 894.8 0.2 68
2017-07-24 08:00:00 15.4 7 Noroeste 14 Noroeste 0 894.7 0 73
2017-07-24 07:00:00 15.2 10 Noroeste 17 Noroeste 0 894.4 -0.2 73
2017-07-24 06:00:00 16 7 Norte 26 Oeste 0 894.6 -0.4 69
2017-07-24 05:00:00 16.4 2 Oeste 17 Noroeste 0 894.7 -0.5 67
2017-07-24 04:00:00 17.5 10 Noroeste 30 Noroeste 0 894.6 -0.2 63
2017-07-24 03:00:00 18.8 14 Noroeste 24 Oeste 0 895 0.6 57
2017-07-24 02:00:00 19.9 9 Sudoeste 27 Noroeste 0 895.2 1.3 50
2017-07-24 01:00:00 20.9 15 Noroeste 29 Noroeste 0 894.8 1.5 45
2017-07-24 00:00:00 21.5 12 Noroeste 22 Norte 0 894.4 1.2 35
2017-07-23 23:00:00 22.7 6 Noroeste 11 Noroeste 0 893.9 0.9 28
2017-07-23 22:00:00 24.4 8 Norte 22 Noroeste 0 893.3 0.4 26
2017-07-23 21:00:00 26.5 15 Noroeste 31 Noroeste 0 893.2 0.2 23
2017-07-23 20:00:00 27.7 16 Noroeste 30 Oeste 0 893 -0.1 22
2017-07-23 19:00:00 28.1 18 Noroeste 34 Noroeste 0 892.9 -0.5 21
2017-07-23 18:00:00 28 18 Noroeste 37 Noroeste 0 893 -0.9 23
2017-07-23 17:00:00 28 19 Noroeste 32 Noroeste 0 893.1 -0.8 21
2017-07-23 16:00:00 27.1 12 Norte 30 Noroeste 0 893.4 -0.5 30
2017-07-23 15:00:00 26.1 16 Norte 34 Noroeste 0 893.9 0.1 34
2017-07-23 14:00:00 26.1 13 Norte 27 Noroeste 0 893.9 0.2 31
2017-07-23 13:00:00 25.5 6 Noroeste 17 Norte 0 893.9 0.5 31
2017-07-23 12:00:00 23.6 8 Norte 22 Norte 0 893.8 0.6 36
2017-07-23 11:00:00 21.7 13 Norte 23 Norte 0 893.7 0.5 42
2017-07-23 10:00:00 19 4 Oeste 12 Sur 0 893.4 0.4 52
2017-07-23 09:00:00 15.8 7 Sur 10 Sur 0 893.2 0.5 60
2017-07-23 08:00:00 13.9 5 Sudoeste 10 Sudoeste 0 893.2 0.5 66
2017-07-23 07:00:00 13.4 3 Sudeste 8 Sur 0 893 -0.1 69
2017-07-23 06:00:00 14.1 3 Sudeste 8 Sudeste 0 892.7 -0.5 67
2017-07-23 05:00:00 15 3 Oeste 6 Sur 0 892.7 -0.3 61
2017-07-23 04:00:00 16.6 4 Noroeste 9 Noroeste 0 893.1 0.4 57
2017-07-23 03:00:00 17.6 6 Noroeste 14 Noroeste 0 893.2 1 53
2017-07-23 02:00:00 18.5 5 Norte 14 Noroeste 0 893 1.1 50
2017-07-23 01:00:00 19.5 9 Noroeste 18 Norte 0 892.7 1.6 44
2017-07-23 00:00:00 20.8 5 Noroeste 14 Noroeste 0 892.2 1.7 34
2017-07-22 23:00:00 22 7 Norte 18 Noroeste 0 891.9 1.9 30
2017-07-22 22:00:00 23.4 11 Noroeste 19 Norte 0 891.1 1.2 27
2017-07-22 21:00:00 25.4 15 Norte 28 Norte 0 890.5 0.7 23
2017-07-22 20:00:00 26.5 13 Norte 30 Noroeste 0 890 0.2 23
2017-07-22 19:00:00 27.2 13 Noroeste 28 Noroeste 0 889.9 0.1 24
2017-07-22 18:00:00 27.4 12 Noroeste 27 Noroeste 0 889.8 0.1 26
2017-07-22 17:00:00 27.2 14 Noroeste 26 Noroeste 0 889.8 0 27
2017-07-22 16:00:00 26.2 11 Nordeste 23 Norte 0 889.8 0.1 29
2017-07-22 15:00:00 25.8 14 Noroeste 27 Norte 0 889.7 -0.1 29
2017-07-22 14:00:00 24.9 13 Noroeste 24 Noroeste 0 889.8 -0.1 32
2017-07-22 13:00:00 24.1 8 Norte 20 Norte 0 889.7 -0.1 33
2017-07-22 12:00:00 23.3 3 Nordeste 14 Noroeste 0 889.8 0.3 30
2017-07-22 11:00:00 21 3 Norte 7 Noroeste 0 889.9 0.6 37
2017-07-22 10:00:00 17.2 4 Noroeste 10 Oeste 0 889.8 0.8 43
2017-07-22 09:00:00 15.4 4 Sur 9 Sur 0 889.5 0.4 48
2017-07-22 08:00:00 13.6 4 Sur 7 Sur 0 889.3 0.3 53
2017-07-22 07:00:00 12.4 3 Sudeste 8 Sudeste 0 889 -0.2 56
2017-07-22 06:00:00 13.4 4 Noroeste 8 Oeste 0 889.1 -0.1 52
2017-07-22 05:00:00 14.4 4 Noroeste 8 Noroeste 0 889 -0.2 53
2017-07-22 04:00:00 15.7 4 Noroeste 11 Oeste 0 889.2 0.1 46
2017-07-22 03:00:00 16.9 6 Noroeste 19 Norte 0 889.2 0.3 42
2017-07-22 02:00:00 17.7 9 Noroeste 23 Noroeste 0 889.2 0.8 40
2017-07-22 01:00:00 18.7 10 Noroeste 19 Noroeste 0 889.1 1.4 32
2017-07-22 00:00:00 19.4 5 Noroeste 14 Norte 0 888.9 1.7 30